Time;durP1;ratioP1;P1;durP2;ratioP2;P2;SDS_P1;SDS_P2;PMS_P1;PMS_P2;Temp;Humidity;BMP_temperature;BMP_pressure;BME280_temperature;BME280_humidity;BME280_pressure;Samples;Min_cycle;Max_cycle;Signal;HPM_P1;HPM_P2
2023/12/21 00:00:53;;;;;;;16.75;2.85;;;11.50;99.90;;;;;;4992300;28;38240;-78
2023/12/21 00:03:19;;;;;;;19.77;2.70;;;11.50;99.90;;;;;;4988229;28;37234;-78
2023/12/21 00:05:45;;;;;;;16.40;3.00;;;11.40;99.90;;;;;;4982204;28;36897;-78
2023/12/21 00:08:11;;;;;;;20.43;3.27;;;11.50;99.90;;;;;;4989386;28;39141;-78
2023/12/21 00:10:37;;;;;;;13.23;2.67;;;11.40;99.90;;;;;;4991473;28;37080;-78
2023/12/21 00:13:04;;;;;;;15.97;2.60;;;11.40;99.90;;;;;;4990848;28;37884;-78
2023/12/21 00:15:30;;;;;;;16.37;2.33;;;11.40;99.90;;;;;;4989643;28;38904;-78
2023/12/21 00:17:59;;;;;;;21.30;3.07;;;11.40;99.90;;;;;;4987428;28;38910;-79
2023/12/21 00:20:25;;;;;;;14.73;2.53;;;11.40;99.90;;;;;;4988972;28;39042;-78
2023/12/21 00:22:51;;;;;;;20.55;4.22;;;11.40;99.90;;;;;;4991021;28;37735;-78
2023/12/21 00:25:17;;;;;;;21.30;3.80;;;11.40;99.90;;;;;;4990926;28;34768;-78
2023/12/21 00:27:43;;;;;;;20.60;3.07;;;11.40;99.90;;;;;;4987121;28;39068;-77
2023/12/21 00:30:10;;;;;;;22.90;3.73;;;11.40;99.90;;;;;;4989640;28;38672;-77
2023/12/21 00:32:36;;;;;;;18.03;3.97;;;11.40;99.90;;;;;;4992504;28;37524;-77
2023/12/21 00:35:02;;;;;;;23.93;3.07;;;11.40;99.90;;;;;;4995587;28;38183;-76
2023/12/21 00:37:30;;;;;;;20.63;3.13;;;11.30;99.90;;;;;;4996552;28;38869;-77
2023/12/21 00:39:57;;;;;;;21.13;3.53;;;11.30;99.90;;;;;;4995600;28;37431;-78
2023/12/21 00:42:25;;;;;;;12.83;2.83;;;11.30;99.90;;;;;;4989334;28;37405;-78
2023/12/21 00:44:51;;;;;;;16.48;3.05;;;11.30;99.90;;;;;;5006546;28;36699;-78
2023/12/21 00:47:17;;;;;;;14.80;2.80;;;11.30;99.90;;;;;;4995261;28;37963;-78
2023/12/21 00:49:43;;;;;;;20.23;2.72;;;11.30;99.90;;;;;;4991850;28;38675;-77
2023/12/21 00:52:09;;;;;;;14.50;2.77;;;11.30;99.90;;;;;;4993463;28;38957;-78
2023/12/21 00:54:36;;;;;;;22.87;3.30;;;11.30;99.90;;;;;;4993366;28;37107;-77
2023/12/21 00:57:02;;;;;;;23.20;3.50;;;11.30;99.90;;;;;;4988142;28;37553;-79
2023/12/21 00:59:28;;;;;;;23.37;3.00;;;11.30;99.90;;;;;;4992092;28;38202;-77
2023/12/21 01:01:54;;;;;;;18.30;3.10;;;11.30;99.90;;;;;;4992198;28;37886;-78
2023/12/21 01:04:20;;;;;;;22.93;3.73;;;11.20;99.90;;;;;;5009238;28;36914;-78
2023/12/21 01:06:46;;;;;;;18.77;2.80;;;11.20;99.90;;;;;;4994774;28;37594;-78
2023/12/21 01:09:12;;;;;;;17.60;2.83;;;11.30;99.90;;;;;;4994292;28;37980;-78
2023/12/21 01:11:38;;;;;;;15.43;2.90;;;11.30;99.90;;;;;;4994121;28;38038;-79
2023/12/21 01:14:04;;;;;;;19.57;3.33;;;11.20;99.90;;;;;;4988593;28;38156;-78
2023/12/21 01:16:31;;;;;;;18.77;3.40;;;11.20;99.90;;;;;;4992629;28;37378;-79
2023/12/21 01:18:57;;;;;;;18.43;3.83;;;11.30;99.90;;;;;;4995403;28;37290;-77
2023/12/21 01:21:23;;;;;;;21.63;3.10;;;11.20;99.90;;;;;;4994023;28;38059;-79
2023/12/21 01:23:49;;;;;;;22.67;3.60;;;11.20;99.90;;;;;;4993567;28;36906;-79
2023/12/21 01:26:15;;;;;;;23.13;3.17;;;11.20;99.90;;;;;;4991274;28;38755;-77
2023/12/21 01:28:43;;;;;;;21.80;3.93;;;11.20;99.90;;;;;;4993894;28;38542;-78
2023/12/21 01:31:10;;;;;;;18.13;3.80;;;11.20;99.90;;;;;;4987776;28;36211;-78
2023/12/21 01:33:36;;;;;;;31.03;4.37;;;11.20;99.90;;;;;;4988161;28;35856;-78
2023/12/21 01:36:07;;;;;;;22.40;3.80;;;11.20;99.90;;;;;;4993696;28;39059;-79
2023/12/21 01:38:34;;;;;;;27.83;3.70;;;11.20;99.90;;;;;;4995392;28;37503;-78
2023/12/21 01:41:00;;;;;;;23.83;3.57;;;11.20;99.90;;;;;;4993819;28;38228;-78
2023/12/21 01:43:26;;;;;;;19.13;3.90;;;11.30;99.90;;;;;;4973096;28;36891;-78
2023/12/21 01:45:54;;;;;;;23.97;3.27;;;11.20;99.90;;;;;;4978693;28;37983;-78
2023/12/21 01:48:21;;;;;;;19.90;3.40;;;11.20;99.90;;;;;;4967499;28;38849;-78
2023/12/21 01:50:48;;;;;;;17.27;2.87;;;11.20;99.90;;;;;;4981711;28;38779;-77
2023/12/21 01:53:15;;;;;;;23.47;3.67;;;11.20;99.90;;;;;;4988354;28;36922;-77
2023/12/21 01:55:42;;;;;;;22.90;4.00;;;11.30;99.90;;;;;;4990557;28;38878;-77
2023/12/21 01:58:10;;;;;;;15.93;3.33;;;11.20;99.90;;;;;;4989216;28;37612;-78
2023/12/21 02:03:13;;;;;;;21.50;4.20;;;11.30;99.90;;;;;;5321490;23;20051;-79
2023/12/21 02:05:40;;;;;;;23.50;4.07;;;11.20;99.90;;;;;;4986243;28;38645;-80
2023/12/21 02:08:07;;;;;;;26.50;4.40;;;11.20;99.90;;;;;;4977257;28;38895;-80
2023/12/21 02:10:33;;;;;;;22.00;3.90;;;11.30;99.90;;;;;;4980618;28;37048;-79
2023/12/21 02:12:59;;;;;;;17.83;3.23;;;11.20;99.90;;;;;;4998589;28;36396;-79
2023/12/21 02:15:25;;;;;;;23.60;3.27;;;11.30;99.90;;;;;;4979958;28;38706;-80
2023/12/21 02:17:53;;;;;;;24.33;4.70;;;11.20;99.90;;;;;;4992511;28;38841;-80
2023/12/21 02:20:19;;;;;;;20.23;3.63;;;11.30;99.90;;;;;;4995542;28;38530;-81
2023/12/21 02:22:47;;;;;;;30.20;5.07;;;11.30;99.90;;;;;;4981114;28;36238;-80
2023/12/21 02:25:14;;;;;;;22.70;3.83;;;11.20;99.90;;;;;;4970239;28;37423;-80
2023/12/21 02:27:40;;;;;;;26.33;3.80;;;11.20;99.90;;;;;;4975061;28;37651;-80
2023/12/21 02:30:07;;;;;;;20.33;3.70;;;11.20;99.90;;;;;;4981271;28;37106;-78
2023/12/21 02:32:33;;;;;;;22.37;4.17;;;11.20;99.90;;;;;;4981054;28;36375;-80
2023/12/21 02:34:59;;;;;;;24.47;3.67;;;11.20;99.90;;;;;;4983979;28;37485;-80
2023/12/21 02:37:25;;;;;;;14.70;3.17;;;11.20;99.90;;;;;;4978645;28;37181;-80
2023/12/21 02:39:51;;;;;;;29.67;3.77;;;11.20;99.90;;;;;;4996055;28;38993;-80
2023/12/21 02:42:17;;;;;;;23.95;4.13;;;11.30;99.90;;;;;;4982195;28;37360;-81
2023/12/21 02:44:43;;;;;;;18.52;3.58;;;11.30;99.90;;;;;;4979794;28;37431;-80
2023/12/21 02:47:09;;;;;;;19.70;3.75;;;11.30;99.90;;;;;;4996201;28;37660;-79
2023/12/21 02:49:35;;;;;;;18.03;3.53;;;11.30;99.90;;;;;;4984278;28;36840;-80
2023/12/21 02:52:02;;;;;;;19.08;4.30;;;11.30;99.90;;;;;;4982111;28;36265;-80
2023/12/21 02:54:28;;;;;;;18.70;4.18;;;11.30;99.90;;;;;;4982979;28;37551;-80
2023/12/21 02:56:54;;;;;;;19.23;3.57;;;11.30;99.90;;;;;;5000985;28;38001;-80
2023/12/21 02:59:20;;;;;;;22.10;4.55;;;11.30;99.90;;;;;;4987073;28;36898;-80
2023/12/21 03:01:46;;;;;;;16.05;3.47;;;11.30;99.90;;;;;;4986374;28;36212;-80
2023/12/21 03:04:13;;;;;;;21.10;4.30;;;11.30;99.90;;;;;;4985178;28;38503;-80
2023/12/21 03:06:39;;;;;;;18.45;3.95;;;11.30;99.90;;;;;;4980295;28;37544;-81
2023/12/21 03:09:06;;;;;;;18.00;3.22;;;11.20;99.90;;;;;;4976708;28;37149;-80
2023/12/21 03:11:32;;;;;;;36.17;5.03;;;11.20;99.90;;;;;;4980655;28;35912;-80
2023/12/21 03:13:58;;;;;;;27.85;4.72;;;11.30;99.90;;;;;;4999847;28;39004;-80
2023/12/21 03:16:24;;;;;;;19.20;4.33;;;11.30;99.90;;;;;;4997032;28;38599;-80
2023/12/21 03:18:50;;;;;;;22.80;3.50;;;11.30;99.90;;;;;;4984439;28;36927;-80
2023/12/21 03:21:16;;;;;;;24.05;3.60;;;11.30;99.90;;;;;;4984764;28;34350;-80
2023/12/21 03:23:42;;;;;;;18.50;3.78;;;11.30;99.90;;;;;;4984410;28;38136;-80
2023/12/21 03:26:09;;;;;;;26.42;4.15;;;11.30;99.90;;;;;;4999559;28;37994;-80
2023/12/21 03:28:35;;;;;;;25.60;4.60;;;11.30;99.90;;;;;;4999306;28;39242;-79
2023/12/21 03:31:01;;;;;;;20.65;3.03;;;11.30;99.90;;;;;;4985172;28;35923;-80
2023/12/21 03:33:28;;;;;;;17.40;3.30;;;11.30;99.90;;;;;;4981322;28;39025;-79
2023/12/21 03:35:54;;;;;;;24.27;4.23;;;11.30;99.90;;;;;;5001619;28;38609;-80
2023/12/21 03:38:20;;;;;;;23.63;3.60;;;11.30;99.90;;;;;;4982717;28;37266;-81
2023/12/21 03:40:46;;;;;;;21.20;3.80;;;11.20;99.90;;;;;;4995682;28;37723;-80
2023/12/21 03:43:12;;;;;;;19.67;4.00;;;11.30;99.90;;;;;;4996980;28;37455;-80
2023/12/21 03:45:40;;;;;;;22.40;3.38;;;11.30;99.90;;;;;;5001696;28;39291;-79
2023/12/21 03:48:08;;;;;;;22.80;3.50;;;11.30;99.90;;;;;;4986561;28;36658;-79
2023/12/21 03:50:34;;;;;;;20.02;3.58;;;11.30;99.90;;;;;;4982938;28;36062;-79
2023/12/21 03:53:01;;;;;;;20.13;3.53;;;11.30;99.90;;;;;;4995840;28;38871;-80
2023/12/21 03:55:27;;;;;;;20.70;3.92;;;11.30;99.90;;;;;;4975668;28;46630;-80
2023/12/21 03:57:53;;;;;;;23.03;3.10;;;11.30;99.90;;;;;;4976738;28;37276;-80
2023/12/21 04:00:19;;;;;;;22.60;3.63;;;11.30;99.90;;;;;;4981259;28;37433;-80
2023/12/21 04:02:46;;;;;;;18.17;3.23;;;11.30;99.90;;;;;;4979143;28;38003;-80
2023/12/21 04:05:12;;;;;;;20.13;3.40;;;11.30;99.90;;;;;;4997050;28;38490;-80
2023/12/21 04:07:38;;;;;;;16.88;3.10;;;11.30;99.90;;;;;;4992996;28;39431;-81
2023/12/21 04:10:05;;;;;;;16.25;3.38;;;11.30;99.90;;;;;;4973449;28;37892;-79
2023/12/21 04:12:31;;;;;;;15.75;3.15;;;11.30;99.90;;;;;;4996982;28;39183;-80
2023/12/21 04:14:57;;;;;;;21.90;2.90;;;11.30;99.90;;;;;;4981434;28;37477;-81
2023/12/21 04:17:24;;;;;;;11.52;2.95;;;11.30;99.90;;;;;;4973433;28;36652;-80
2023/12/21 04:19:51;;;;;;;14.80;2.83;;;11.40;99.90;;;;;;4992827;28;35651;-80
2023/12/21 04:22:18;;;;;;;19.40;2.78;;;11.40;99.90;;;;;;4973725;28;37522;-80
2023/12/21 04:24:44;;;;;;;16.25;2.83;;;11.30;99.90;;;;;;4992366;28;38657;-79
2023/12/21 04:27:11;;;;;;;17.20;3.47;;;11.30;99.90;;;;;;4993325;28;38373;-79
2023/12/21 04:29:37;;;;;;;24.20;3.30;;;11.30;99.90;;;;;;4987139;28;36920;-80
2023/12/21 04:32:05;;;;;;;15.30;2.65;;;11.30;99.90;;;;;;4973250;28;38565;-80
2023/12/21 04:34:31;;;;;;;11.88;2.40;;;11.30;99.90;;;;;;4992105;28;36810;-80
2023/12/21 04:36:57;;;;;;;16.92;2.70;;;11.30;99.90;;;;;;4993735;28;38248;-80
2023/12/21 04:39:23;;;;;;;11.40;2.25;;;11.30;99.90;;;;;;4982436;28;35930;-81
2023/12/21 04:41:50;;;;;;;13.60;2.40;;;11.40;99.90;;;;;;4995139;28;38670;-80
2023/12/21 04:44:16;;;;;;;18.13;2.90;;;11.30;99.90;;;;;;4972253;28;37200;-80
2023/12/21 04:46:47;;;;;;;24.07;2.93;;;11.30;99.90;;;;;;4976307;28;36575;-81
2023/12/21 04:49:19;;;;;;;15.25;2.28;;;11.40;99.90;;;;;;4977240;28;36092;-80
2023/12/21 04:51:46;;;;;;;13.70;2.30;;;11.30;99.90;;;;;;4975964;28;37655;-81
2023/12/21 04:54:12;;;;;;;19.70;2.67;;;11.40;99.90;;;;;;4976200;28;37528;-80
2023/12/21 04:56:42;;;;;;;20.25;3.58;;;11.30;99.90;;;;;;4976353;28;37775;-80
2023/12/21 04:59:09;;;;;;;22.25;3.17;;;11.30;99.90;;;;;;4975121;28;34993;-80
2023/12/21 05:01:35;;;;;;;23.30;3.47;;;11.30;99.90;;;;;;4994448;28;38265;-81
2023/12/21 05:04:09;;;;;;;17.88;3.28;;;11.30;99.90;;;;;;4997714;28;39235;-80
2023/12/21 05:06:35;;;;;;;20.33;2.97;;;11.20;99.90;;;;;;4980609;28;37315;-80
2023/12/21 05:09:02;;;;;;;20.70;4.43;;;11.20;99.90;;;;;;4997022;28;39717;-79
2023/12/21 05:11:28;;;;;;;19.63;3.27;;;11.20;99.90;;;;;;4979843;28;38176;-81
2023/12/21 05:13:55;;;;;;;19.73;2.60;;;11.20;99.90;;;;;;4984251;28;37922;-82
2023/12/21 05:16:21;;;;;;;20.13;3.33;;;11.10;99.90;;;;;;4990141;28;38641;-81
2023/12/21 05:18:49;;;;;;;19.93;3.20;;;11.10;99.90;;;;;;4992554;28;36645;-81
2023/12/21 05:21:15;;;;;;;24.57;3.43;;;11.00;99.90;;;;;;5008837;28;40242;-81
2023/12/21 05:23:41;;;;;;;19.53;3.50;;;11.00;99.90;;;;;;4992577;28;38492;-80
2023/12/21 05:26:12;;;;;;;20.13;3.63;;;11.00;99.90;;;;;;5004926;28;38332;-81
2023/12/21 05:28:41;;;;;;;20.07;3.13;;;11.00;99.90;;;;;;5005446;28;38684;-81
2023/12/21 05:31:11;;;;;;;18.83;2.97;;;10.90;99.90;;;;;;4987253;28;39363;-79
2023/12/21 05:33:39;;;;;;;17.67;2.87;;;10.90;99.90;;;;;;5002708;28;39084;-81
2023/12/21 05:36:05;;;;;;;28.80;4.57;;;10.90;99.90;;;;;;4979516;28;37957;-80
2023/12/21 05:38:31;;;;;;;13.73;3.40;;;10.90;99.90;;;;;;4963202;28;37149;-80
2023/12/21 05:40:57;;;;;;;21.13;3.13;;;10.90;99.90;;;;;;4995308;28;38254;-79
2023/12/21 05:43:23;;;;;;;22.77;4.20;;;10.90;99.90;;;;;;5002031;28;39903;-79
2023/12/21 05:45:50;;;;;;;22.83;2.80;;;10.90;99.90;;;;;;4987123;28;38359;-80
2023/12/21 05:48:16;;;;;;;18.97;3.03;;;10.90;99.90;;;;;;4987918;28;36495;-79
2023/12/21 05:50:42;;;;;;;16.23;2.40;;;11.00;99.90;;;;;;4970200;28;37954;-79
2023/12/21 05:53:08;;;;;;;21.83;2.73;;;11.00;99.90;;;;;;4970984;28;38757;-78
2023/12/21 05:55:43;;;;;;;26.23;3.17;;;11.00;99.90;;;;;;4989269;28;39192;-79
2023/12/21 05:58:09;;;;;;;23.30;3.80;;;11.10;99.90;;;;;;4973563;28;36091;-79
2023/12/21 06:00:37;;;;;;;16.60;3.77;;;11.10;99.90;;;;;;4995527;28;38233;-79
2023/12/21 06:03:03;;;;;;;22.57;3.57;;;11.20;99.90;;;;;;4996508;28;37370;-79
2023/12/21 06:05:30;;;;;;;27.13;3.30;;;11.20;99.90;;;;;;4996611;28;38752;-78
2023/12/21 06:07:56;;;;;;;20.27;3.13;;;11.20;99.90;;;;;;4994303;28;38425;-80
2023/12/21 06:10:22;;;;;;;14.40;2.43;;;11.20;99.90;;;;;;4988472;28;37748;-79
2023/12/21 06:12:48;;;;;;;15.63;3.23;;;11.20;99.90;;;;;;4978185;28;38695;-79
2023/12/21 06:15:14;;;;;;;17.63;3.40;;;11.30;99.90;;;;;;4964084;28;36672;-79
2023/12/21 06:17:40;;;;;;;18.27;3.73;;;11.30;99.90;;;;;;4988027;28;37001;-78
2023/12/21 06:20:07;;;;;;;22.57;3.17;;;11.40;99.90;;;;;;4971263;28;39063;-78
2023/12/21 06:22:36;;;;;;;18.53;3.10;;;11.40;99.90;;;;;;4991735;28;38626;-79
2023/12/21 06:25:02;;;;;;;22.07;2.63;;;11.40;99.90;;;;;;5003091;28;38795;-79
2023/12/21 06:27:29;;;;;;;13.80;2.53;;;11.40;99.90;;;;;;4995329;28;37449;-81
2023/12/21 06:29:58;;;;;;;14.80;2.50;;;11.50;99.90;;;;;;4987935;28;37908;-81
2023/12/21 06:32:24;;;;;;;27.27;3.27;;;11.50;99.90;;;;;;4989789;28;39656;-81
2023/12/21 06:34:52;;;;;;;14.80;2.43;;;11.50;99.90;;;;;;4992528;28;37546;-81
2023/12/21 06:37:18;;;;;;;14.33;2.13;;;11.50;99.90;;;;;;5012072;28;37838;-81
2023/12/21 06:39:48;;;;;;;20.17;2.90;;;11.50;99.90;;;;;;5001013;28;39378;-82
2023/12/21 06:42:14;;;;;;;16.00;3.07;;;11.50;99.90;;;;;;5010947;28;38772;-79
2023/12/21 06:44:40;;;;;;;22.90;3.40;;;11.50;99.90;;;;;;4992510;28;38128;-79
2023/12/21 06:47:06;;;;;;;23.83;3.70;;;11.40;99.90;;;;;;4964334;28;36006;-79
2023/12/21 06:49:32;;;;;;;28.40;4.47;;;11.40;99.90;;;;;;4997509;28;40245;-79
2023/12/21 06:52:00;;;;;;;29.27;4.27;;;11.40;99.90;;;;;;4981831;28;37566;-79
2023/12/21 06:54:26;;;;;;;27.77;4.90;;;11.40;99.90;;;;;;4979560;28;37460;-79
2023/12/21 06:56:53;;;;;;;28.93;5.30;;;11.30;99.90;;;;;;4993367;28;37726;-79
2023/12/21 06:59:19;;;;;;;34.47;5.40;;;11.30;99.90;;;;;;4996299;28;39293;-80
2023/12/21 07:01:45;;;;;;;35.63;5.00;;;11.30;99.90;;;;;;4984903;28;38719;-78
2023/12/21 07:04:11;;;;;;;28.53;4.93;;;11.30;99.90;;;;;;4969290;28;38778;-79
2023/12/21 07:06:37;;;;;;;38.17;6.47;;;11.30;99.90;;;;;;4980630;28;37116;-78
2023/12/21 07:09:03;;;;;;;23.80;3.70;;;11.30;99.90;;;;;;4976782;28;39217;-80
2023/12/21 07:11:29;;;;;;;38.07;5.23;;;11.20;99.90;;;;;;4988478;28;38838;-79
2023/12/21 07:13:56;;;;;;;31.77;5.67;;;11.20;99.90;;;;;;4973433;28;37181;-79
2023/12/21 07:16:23;;;;;;;29.73;5.73;;;11.10;99.90;;;;;;4980491;28;36102;-79
2023/12/21 07:18:50;;;;;;;32.77;5.00;;;11.10;99.90;;;;;;4988612;28;38684;-78
2023/12/21 07:21:16;;;;;;;31.07;5.40;;;11.10;99.90;;;;;;4973413;28;35634;-78
2023/12/21 07:23:42;;;;;;;29.30;5.90;;;11.00;99.90;;;;;;4983331;28;38238;-78
2023/12/21 07:26:11;;;;;;;26.43;4.77;;;11.00;99.90;;;;;;4973135;28;35894;-78
2023/12/21 07:28:39;;;;;;;23.40;4.43;;;11.00;99.90;;;;;;4989697;28;39068;-78
2023/12/21 07:31:06;;;;;;;28.53;4.43;;;11.00;99.90;;;;;;4972785;28;37463;-79
2023/12/21 07:33:32;;;;;;;32.83;4.87;;;11.00;99.90;;;;;;4974829;28;37002;-78
2023/12/21 07:35:58;;;;;;;29.93;4.10;;;11.00;99.90;;;;;;4984863;28;37693;-78
2023/12/21 07:38:24;;;;;;;29.90;5.77;;;11.00;99.90;;;;;;4991732;28;38951;-77
2023/12/21 07:40:51;;;;;;;26.17;5.07;;;11.00;99.90;;;;;;4994176;28;38380;-77
2023/12/21 07:43:18;;;;;;;26.90;3.97;;;11.00;99.90;;;;;;4993313;28;37899;-78
2023/12/21 07:45:44;;;;;;;26.23;4.33;;;11.00;99.90;;;;;;4996366;28;37923;-77
2023/12/21 07:48:10;;;;;;;25.37;4.43;;;11.00;99.90;;;;;;4970845;28;38012;-79
2023/12/21 07:50:36;;;;;;;23.17;3.53;;;11.10;99.90;;;;;;4996975;28;37297;-78
2023/12/21 07:53:02;;;;;;;27.00;3.90;;;11.10;99.90;;;;;;4978640;28;36745;-79
2023/12/21 07:55:29;;;;;;;18.40;3.00;;;11.20;99.90;;;;;;5079811;23;37025;-79
2023/12/21 07:57:55;;;;;;;25.37;3.63;;;11.20;99.90;;;;;;4997364;28;37713;-80
2023/12/21 08:00:21;;;;;;;25.80;3.50;;;11.30;99.90;;;;;;5005814;28;39829;-80
2023/12/21 08:02:48;;;;;;;15.77;2.77;;;11.30;99.90;;;;;;4999697;28;39375;-79
2023/12/21 08:05:14;;;;;;;19.23;2.80;;;11.40;99.90;;;;;;4997274;28;35242;-80
2023/12/21 08:07:41;;;;;;;24.17;2.83;;;11.40;99.90;;;;;;4999165;28;39798;-79
2023/12/21 08:10:08;;;;;;;17.00;3.00;;;11.50;99.90;;;;;;4998535;28;37462;-80
2023/12/21 08:12:35;;;;;;;25.60;3.43;;;11.50;99.90;;;;;;4998319;28;37205;-79
2023/12/21 08:15:02;;;;;;;19.70;3.10;;;11.50;99.90;;;;;;5000805;28;37298;-79
2023/12/21 08:17:32;;;;;;;20.07;3.13;;;11.60;99.90;;;;;;4989235;28;39276;-80
2023/12/21 08:19:58;;;;;;;19.73;2.90;;;11.60;99.90;;;;;;5001518;28;37690;-80
2023/12/21 08:22:24;;;;;;;18.73;3.20;;;11.60;99.90;;;;;;4997814;28;37050;-79
2023/12/21 08:24:51;;;;;;;25.30;4.07;;;11.70;99.90;;;;;;4998157;28;36061;-79
2023/12/21 08:27:19;;;;;;;23.47;2.80;;;11.70;99.90;;;;;;4995426;28;37491;-80
2023/12/21 08:29:52;;;;;;;17.17;3.17;;;11.80;99.90;;;;;;4998694;28;37786;-80
2023/12/21 08:32:21;;;;;;;21.08;3.28;;;11.80;99.90;;;;;;5001113;28;38376;-80
2023/12/21 08:34:47;;;;;;;18.27;3.63;;;11.90;99.90;;;;;;5004212;28;35934;-79
2023/12/21 08:37:13;;;;;;;19.33;3.47;;;11.90;99.90;;;;;;5007008;28;37849;-80
2023/12/21 08:39:40;;;;;;;16.70;3.20;;;11.90;99.90;;;;;;5002391;28;37605;-80
2023/12/21 08:42:10;;;;;;;23.70;4.13;;;11.90;99.90;;;;;;5000275;28;37270;-81
2023/12/21 08:44:37;;;;;;;21.80;3.78;;;11.90;99.90;;;;;;5004800;28;37124;-80
2023/12/21 08:47:09;;;;;;;23.70;3.25;;;11.90;99.90;;;;;;5002863;28;38259;-80
2023/12/21 08:49:35;;;;;;;22.88;3.08;;;11.90;99.90;;;;;;5002312;28;39569;-79
2023/12/21 08:52:01;;;;;;;20.15;4.28;;;12.00;99.90;;;;;;5000223;28;36997;-79
2023/12/21 08:54:27;;;;;;;20.50;2.90;;;12.00;99.90;;;;;;5003514;28;48319;-79
2023/12/21 08:56:54;;;;;;;20.27;3.03;;;12.00;99.90;;;;;;5004147;28;39230;-79
2023/12/21 08:59:20;;;;;;;16.88;2.40;;;12.10;99.90;;;;;;5002620;28;38741;-80
2023/12/21 09:01:46;;;;;;;16.88;3.65;;;12.10;99.90;;;;;;4997411;28;38201;-80
2023/12/21 09:04:13;;;;;;;15.93;2.70;;;12.20;99.90;;;;;;4999116;28;38789;-81
2023/12/21 09:06:40;;;;;;;21.67;3.78;;;12.30;99.90;;;;;;4974784;28;37955;-81
2023/12/21 09:16:53;;;;;;;17.20;2.60;;;12.40;99.90;;;;;;5486230;23;20062;-80
2023/12/21 09:19:20;;;;;;;17.83;3.03;;;12.50;99.90;;;;;;4998173;28;37572;-78
2023/12/21 09:21:46;;;;;;;23.27;3.17;;;12.50;99.90;;;;;;4987191;28;36870;-77
2023/12/21 09:24:12;;;;;;;20.65;2.42;;;12.50;99.90;;;;;;5008398;28;35927;-79
2023/12/21 09:26:39;;;;;;;17.73;3.75;;;12.50;99.90;;;;;;4997511;28;38834;-79
2023/12/21 09:29:06;;;;;;;21.77;2.53;;;12.50;99.90;;;;;;5018399;28;38344;-80
2023/12/21 09:31:32;;;;;;;8.90;1.63;;;12.50;99.90;;;;;;5019929;28;37209;-80
2023/12/21 09:33:59;;;;;;;11.70;2.72;;;12.50;99.90;;;;;;5017958;28;36384;-79
2023/12/21 09:36:25;;;;;;;12.98;2.00;;;12.50;99.90;;;;;;5004744;28;37776;-80
2023/12/21 09:38:57;;;;;;;12.15;1.98;;;12.60;99.90;;;;;;5005099;28;37000;-80
2023/12/21 09:41:23;;;;;;;8.27;2.10;;;12.60;99.90;;;;;;5005216;28;40682;-80
2023/12/21 09:43:52;;;;;;;8.93;1.60;;;12.50;99.90;;;;;;5004077;28;37178;-80
2023/12/21 09:46:21;;;;;;;11.68;2.30;;;12.40;99.90;;;;;;4997974;28;38149;-79
2023/12/21 09:48:48;;;;;;;14.70;2.80;;;12.40;99.90;;;;;;5002828;28;37082;-80
2023/12/21 09:51:16;;;;;;;12.75;2.33;;;12.30;99.90;;;;;;4995413;28;38816;-78
2023/12/21 09:53:50;;;;;;;18.50;2.92;;;12.30;99.90;;;;;;4992181;28;36483;-79
2023/12/21 09:56:17;;;;;;;18.70;2.47;;;12.30;99.90;;;;;;4987203;28;37677;-79
2023/12/21 10:01:19;;;;;;;19.13;2.47;;;12.20;99.90;;;;;;5055985;22;20046;-80
2023/12/21 10:03:46;;;;;;;20.70;3.90;;;12.20;99.90;;;;;;4983617;28;37850;-77
2023/12/21 10:06:12;;;;;;;22.08;2.95;;;12.20;99.90;;;;;;4984674;28;37762;-79
2023/12/21 10:08:42;;;;;;;20.33;3.03;;;12.20;99.90;;;;;;4992126;28;37683;-78
2023/12/21 10:11:11;;;;;;;23.17;2.78;;;12.10;99.90;;;;;;4993945;28;40016;-78
2023/12/21 10:13:37;;;;;;;22.08;3.40;;;12.10;99.90;;;;;;5002032;28;38877;-78
2023/12/21 10:16:04;;;;;;;24.48;3.42;;;12.00;99.90;;;;;;4981543;28;39184;-78
2023/12/21 10:18:30;;;;;;;24.10;3.97;;;12.00;99.90;;;;;;4983416;28;38771;-77
2023/12/21 10:20:59;;;;;;;26.15;4.50;;;12.00;99.90;;;;;;4995659;28;36888;-76
2023/12/21 10:23:26;;;;;;;21.58;4.18;;;12.00;99.90;;;;;;4974725;28;35899;-78
2023/12/21 10:25:54;;;;;;;27.43;4.73;;;11.90;99.90;;;;;;4986356;28;37369;-78
2023/12/21 10:28:24;;;;;;;25.67;3.90;;;11.90;99.90;;;;;;5001049;28;37292;-78
2023/12/21 10:31:02;;;;;;;20.67;3.08;;;11.90;99.90;;;;;;4995210;28;36979;-78
2023/12/21 10:33:30;;;;;;;23.95;3.05;;;11.90;99.90;;;;;;4983030;28;48594;-78
2023/12/21 10:35:57;;;;;;;19.52;3.33;;;12.00;99.90;;;;;;4985470;28;38792;-79
2023/12/21 10:38:23;;;;;;;15.45;3.03;;;12.00;99.90;;;;;;4987443;28;38705;-78
2023/12/21 10:40:53;;;;;;;21.42;3.70;;;11.90;99.90;;;;;;4980804;28;38031;-78
2023/12/21 10:43:19;;;;;;;21.80;3.72;;;12.00;99.90;;;;;;4980405;28;38178;-78
2023/12/21 10:45:47;;;;;;;18.05;3.83;;;12.00;99.90;;;;;;4989772;28;37430;-81
2023/12/21 10:48:19;;;;;;;25.75;3.55;;;12.00;99.90;;;;;;4993691;28;38223;-78
2023/12/21 10:50:47;;;;;;;23.90;4.43;;;12.00;99.90;;;;;;5003202;28;36939;-78
2023/12/21 10:53:25;;;;;;;19.23;3.30;;;12.00;99.90;;;;;;4988695;28;35831;-78
2023/12/21 10:55:54;;;;;;;23.75;3.75;;;12.00;99.90;;;;;;4983388;28;38560;-79
2023/12/21 10:58:22;;;;;;;18.40;3.47;;;12.00;99.90;;;;;;4986803;28;39065;-78
2023/12/21 11:00:50;;;;;;;16.95;3.38;;;12.10;99.90;;;;;;4993665;28;38080;-78
2023/12/21 11:03:19;;;;;;;20.20;3.17;;;12.10;99.90;;;;;;4992512;28;37221;-79
2023/12/21 11:05:45;;;;;;;19.48;3.78;;;12.10;99.90;;;;;;4995161;28;37425;-78
2023/12/21 11:08:11;;;;;;;25.05;3.72;;;12.20;99.90;;;;;;4988007;28;39005;-79
2023/12/21 11:10:41;;;;;;;20.05;3.78;;;12.30;99.90;;;;;;5007970;28;38269;-80
2023/12/21 11:13:07;;;;;;;24.60;3.63;;;12.20;99.90;;;;;;4990302;28;36279;-79
2023/12/21 11:15:36;;;;;;;21.30;3.75;;;12.20;99.90;;;;;;4988809;28;39993;-80
2023/12/21 11:18:09;;;;;;;24.52;4.65;;;12.20;99.90;;;;;;4988013;28;37062;-80
2023/12/21 11:20:50;;;;;;;21.90;3.63;;;12.20;99.90;;;;;;4986863;28;37050;-80
2023/12/21 11:23:20;;;;;;;25.92;3.75;;;12.20;99.90;;;;;;4982742;28;37308;-80
2023/12/21 11:25:59;;;;;;;18.30;4.22;;;12.20;99.90;;;;;;4986113;28;39008;-80
2023/12/21 11:28:34;;;;;;;30.45;3.47;;;12.20;99.90;;;;;;4987321;28;37980;-80
2023/12/21 11:31:14;;;;;;;32.97;4.65;;;12.20;99.90;;;;;;4985539;28;38654;-80
2023/12/21 11:33:41;;;;;;;25.23;3.75;;;12.30;99.90;;;;;;4997095;28;46905;-80
2023/12/21 11:36:08;;;;;;;23.87;3.67;;;12.30;99.90;;;;;;4993420;28;38457;-80
2023/12/21 11:38:48;;;;;;;15.75;3.05;;;12.40;99.90;;;;;;4998022;28;37919;-80
2023/12/21 11:41:15;;;;;;;21.35;3.60;;;12.40;99.90;;;;;;4986675;28;36642;-79
2023/12/21 11:43:51;;;;;;;20.27;2.97;;;12.30;99.90;;;;;;4984448;28;35908;-79
2023/12/21 11:46:17;;;;;;;17.20;2.95;;;12.40;99.90;;;;;;4986633;28;38966;-81
2023/12/21 11:48:46;;;;;;;21.55;3.10;;;12.40;99.90;;;;;;4999853;28;38781;-79
2023/12/21 11:51:12;;;;;;;24.98;4.03;;;12.50;99.90;;;;;;4977514;28;37030;-78
2023/12/21 11:53:39;;;;;;;17.05;2.85;;;12.40;99.90;;;;;;5006811;28;35186;-78
2023/12/21 11:56:14;;;;;;;21.13;3.72;;;12.30;99.90;;;;;;4977174;28;37277;-79
2023/12/21 11:58:41;;;;;;;30.35;4.10;;;12.20;99.90;;;;;;4984068;28;36225;-78
2023/12/21 12:01:11;;;;;;;21.70;3.77;;;12.20;99.90;;;;;;4981167;28;37258;-79
2023/12/21 12:03:37;;;;;;;29.23;3.90;;;12.20;99.90;;;;;;4995943;28;37477;-79
2023/12/21 12:06:04;;;;;;;20.58;3.38;;;12.30;99.90;;;;;;4997992;28;38983;-79
2023/12/21 12:08:33;;;;;;;28.70;3.67;;;12.40;99.90;;;;;;4998187;28;38059;-79
2023/12/21 12:10:59;;;;;;;23.08;3.13;;;12.40;99.90;;;;;;4994982;28;37201;-79
2023/12/21 12:13:25;;;;;;;19.45;4.20;;;12.40;99.90;;;;;;5007379;28;35953;-79
2023/12/21 12:15:52;;;;;;;16.05;2.80;;;12.50;99.90;;;;;;4998724;28;38120;-79
2023/12/21 12:18:22;;;;;;;29.08;3.45;;;12.50;99.90;;;;;;5010590;28;38654;-79
2023/12/21 12:20:50;;;;;;;20.17;3.60;;;12.50;99.90;;;;;;4987255;28;37978;-79
2023/12/21 12:23:16;;;;;;;21.50;3.83;;;12.50;99.90;;;;;;4993911;28;37702;-79
2023/12/21 12:25:43;;;;;;;20.17;3.63;;;12.50;99.90;;;;;;4995492;28;37836;-79
2023/12/21 12:28:10;;;;;;;22.27;3.80;;;12.50;99.90;;;;;;4996507;28;38444;-80
2023/12/21 12:30:36;;;;;;;21.88;3.33;;;12.50;99.90;;;;;;4996279;28;38732;-78
2023/12/21 12:33:08;;;;;;;20.75;3.53;;;12.60;99.90;;;;;;4996148;28;36485;-79
2023/12/21 12:35:37;;;;;;;22.17;3.23;;;12.50;99.90;;;;;;4980629;28;39377;-78
2023/12/21 12:38:09;;;;;;;26.90;3.85;;;12.50;99.90;;;;;;4981795;28;39630;-79
2023/12/21 12:40:36;;;;;;;19.83;3.17;;;12.50;99.90;;;;;;4987699;28;37369;-78
2023/12/21 12:43:03;;;;;;;26.98;4.03;;;12.50;99.90;;;;;;4971840;28;36594;-78
2023/12/21 12:45:32;;;;;;;22.90;3.78;;;12.50;99.90;;;;;;4974732;28;37478;-79
2023/12/21 12:48:00;;;;;;;29.08;5.32;;;12.40;99.90;;;;;;4990440;28;35719;-79
2023/12/21 12:50:26;;;;;;;16.83;2.90;;;12.40;99.90;;;;;;4972584;28;37051;-80